createdAt,value
2023-04-09T00:04:08.887Z,5.90
2023-04-09T00:09:11.404Z,5.80
2023-04-09T00:14:13.849Z,5.90
2023-04-09T00:19:16.728Z,6.00
2023-04-09T00:24:19.116Z,5.90
2023-04-09T00:29:21.831Z,6.00
2023-04-09T00:34:24.456Z,5.90
2023-04-09T00:39:26.936Z,5.80
2023-04-09T00:44:29.428Z,5.70
2023-04-09T00:49:31.998Z,5.70
2023-04-09T00:54:34.801Z,5.80
2023-04-09T00:59:37.257Z,5.80
2023-04-09T01:04:43.034Z,5.80
2023-04-09T01:10:01.411Z,5.90
2023-04-09T01:15:08.740Z,5.90
2023-04-09T01:20:32.803Z,6.00
2023-04-09T01:25:48.204Z,5.90
2023-04-09T01:30:56.631Z,6.00
2023-04-09T01:36:01.172Z,5.90
2023-04-09T01:41:07.883Z,5.80
2023-04-09T01:46:12.056Z,5.80
2023-04-09T01:51:16.054Z,5.80
2023-04-09T01:56:18.467Z,6.10
2023-04-09T02:01:38.207Z,5.80
2023-04-09T02:06:48.562Z,5.80
2023-04-09T02:11:51.404Z,5.70
2023-04-09T02:16:53.936Z,5.90
2023-04-09T02:21:56.310Z,5.80
2023-04-09T02:26:58.658Z,5.70
2023-04-09T02:32:01.260Z,5.70
2023-04-09T02:37:03.636Z,5.70
2023-04-09T02:42:07.870Z,5.80
2023-04-09T02:47:10.318Z,5.80
2023-04-09T02:52:13.681Z,5.80
2023-04-09T02:57:16.140Z,5.80
2023-04-09T03:02:18.612Z,5.80
2023-04-09T03:07:20.963Z,5.90
2023-04-09T03:12:23.310Z,5.80
2023-04-09T03:17:27.260Z,5.70
2023-04-09T03:22:29.686Z,6.00
2023-04-09T03:27:33.349Z,5.80
2023-04-09T03:32:37.484Z,5.70
2023-04-09T03:37:40.730Z,5.80
2023-04-09T03:42:50.036Z,5.70
2023-04-09T03:47:53.355Z,5.80
2023-04-09T03:53:00.982Z,6.00
2023-04-09T03:58:03.963Z,5.70
2023-04-09T04:03:12.005Z,5.80
2023-04-09T04:08:34.851Z,5.70
2023-04-09T04:13:37.572Z,5.70
2023-04-09T04:18:43.274Z,5.70
2023-04-09T04:23:45.979Z,6.00
2023-04-09T04:28:55.173Z,5.60
2023-04-09T04:34:20.001Z,5.60
2023-04-09T04:39:31.225Z,5.60
2023-04-09T04:44:38.455Z,5.60
2023-04-09T04:49:48.789Z,5.60
2023-04-09T04:54:53.336Z,5.70
2023-04-09T04:59:58.871Z,5.80
2023-04-09T05:05:01.652Z,5.90
2023-04-09T05:10:11.142Z,5.90
2023-04-09T05:15:17.157Z,5.90
2023-04-09T05:20:19.573Z,6.00
2023-04-09T05:25:29.391Z,6.10
2023-04-09T05:30:32.336Z,6.20
2023-04-09T05:35:41.564Z,6.20
2023-04-09T05:40:45.801Z,6.30
2023-04-09T05:45:49.404Z,6.30
2023-04-09T05:50:55.456Z,6.30
2023-04-09T05:56:02.080Z,6.40
2023-04-09T06:01:21.119Z,6.50
2023-04-09T06:06:25.074Z,6.60
2023-04-09T06:11:27.527Z,6.70
2023-04-09T06:16:29.875Z,6.80
2023-04-09T06:21:33.292Z,6.80
2023-04-09T06:26:35.934Z,6.90
2023-04-09T06:31:38.353Z,7.00
2023-04-09T06:36:40.693Z,7.10
2023-04-09T06:41:43.124Z,7.20
2023-04-09T06:46:58.205Z,7.10
2023-04-09T06:52:00.586Z,7.30
2023-04-09T06:57:03.486Z,7.30
2023-04-09T07:02:06.239Z,7.50
2023-04-09T07:07:08.705Z,7.60
2023-04-09T07:12:11.090Z,7.70
2023-04-09T07:17:13.506Z,7.90
2023-04-09T07:22:16.084Z,8.00
2023-04-09T07:27:18.742Z,8.20
2023-04-09T07:32:21.212Z,8.20
2023-04-09T07:37:23.708Z,8.50
2023-04-09T07:42:27.337Z,8.50
2023-04-09T07:47:29.965Z,8.70
2023-04-09T07:52:32.405Z,8.70
2023-04-09T07:57:35.205Z,8.70
2023-04-09T08:02:37.809Z,8.70
2023-04-09T08:07:40.921Z,8.80
2023-04-09T08:12:44.938Z,9.00
2023-04-09T08:17:47.476Z,9.00
2023-04-09T08:22:50.048Z,9.30
2023-04-09T08:27:52.454Z,9.20
2023-04-09T08:32:54.859Z,9.40
2023-04-09T08:37:58.052Z,9.50
2023-04-09T08:43:03.765Z,9.50
2023-04-09T08:48:10.384Z,9.90
2023-04-09T08:53:14.338Z,10.10
2023-04-09T08:58:16.701Z,10.40
2023-04-09T09:03:19.147Z,10.10
2023-04-09T09:08:26.828Z,10.00
2023-04-09T09:13:29.317Z,10.10
2023-04-09T09:18:44.764Z,10.20
2023-04-09T09:23:48.476Z,10.10
2023-04-09T09:28:51.617Z,9.90
2023-04-09T09:33:54.635Z,10.20
2023-04-09T09:38:58.623Z,10.30
2023-04-09T09:44:01.412Z,10.50
2023-04-09T09:49:03.971Z,10.60
2023-04-09T09:54:09.251Z,10.50
2023-04-09T09:59:24.412Z,10.40
2023-04-09T10:04:29.862Z,10.20
2023-04-09T10:09:33.813Z,10.20
2023-04-09T10:14:37.439Z,10.20
2023-04-09T10:19:47.698Z,10.40
2023-04-09T10:24:51.430Z,10.30
2023-04-09T10:29:54.084Z,10.40
2023-04-09T10:34:58.464Z,10.10
2023-04-09T10:40:03.410Z,9.90
2023-04-09T10:45:08.984Z,9.80
2023-04-09T10:50:20.701Z,9.70
2023-04-09T10:55:38.256Z,9.70
2023-04-09T11:00:42.518Z,9.80
2023-04-09T11:05:59.519Z,9.80
2023-04-09T11:11:02.457Z,9.60
2023-04-09T11:16:07.143Z,9.90
2023-04-09T11:21:10.885Z,9.90
2023-04-09T11:26:13.660Z,10.00
2023-04-09T11:31:16.657Z,9.90
2023-04-09T11:36:19.249Z,10.10
2023-04-09T11:41:36.918Z,10.30
2023-04-09T11:46:39.854Z,10.40
2023-04-09T11:51:42.673Z,10.60
2023-04-09T11:56:45.039Z,10.70
2023-04-09T12:01:51.726Z,10.70
2023-04-09T12:06:58.882Z,11.00
2023-04-09T12:12:02.177Z,11.00
2023-04-09T12:17:04.586Z,11.10
2023-04-09T12:22:06.937Z,11.40
2023-04-09T12:27:10.946Z,11.80
2023-04-09T12:32:13.415Z,11.60
2023-04-09T12:37:15.858Z,11.70
2023-04-09T12:42:18.225Z,12.10
2023-04-09T12:47:20.649Z,12.20
2023-04-09T12:52:24.703Z,12.00
2023-04-09T12:57:28.246Z,12.00
2023-04-09T13:02:31.859Z,11.60
2023-04-09T13:07:34.461Z,11.80
2023-04-09T13:12:36.954Z,11.80
2023-04-09T13:17:39.372Z,12.10
2023-04-09T13:22:41.846Z,12.00
2023-04-09T13:27:44.602Z,12.10
2023-04-09T13:32:47.299Z,12.40
2023-04-09T13:37:49.730Z,12.30
2023-04-09T13:42:52.102Z,12.40
2023-04-09T13:47:54.540Z,12.50
2023-04-09T13:52:57.004Z,12.50
2023-04-09T13:57:59.384Z,12.40
2023-04-09T14:03:03.406Z,12.50
2023-04-09T14:08:05.935Z,12.30
2023-04-09T14:13:10.606Z,12.10
2023-04-09T14:18:13.016Z,12.10
2023-04-09T14:23:15.372Z,12.00
2023-04-09T14:28:17.774Z,12.20
2023-04-09T14:33:20.666Z,12.40
2023-04-09T14:38:26.556Z,12.40
2023-04-09T14:43:28.983Z,12.00
2023-04-09T14:48:31.315Z,12.00
2023-04-09T14:53:33.747Z,12.10
2023-04-09T14:58:36.420Z,11.90
2023-04-09T15:03:39.352Z,11.80
2023-04-09T15:08:41.822Z,11.70
2023-04-09T15:13:44.473Z,11.80
2023-04-09T15:18:49.409Z,11.60
2023-04-09T15:23:51.911Z,11.60
2023-04-09T15:29:06.503Z,11.60
2023-04-09T15:34:08.966Z,11.40
2023-04-09T15:39:11.446Z,11.50
2023-04-09T15:44:13.868Z,11.60
2023-04-09T15:49:16.585Z,11.40
2023-04-09T15:54:18.970Z,11.50
2023-04-09T15:59:21.590Z,11.50
2023-04-09T16:04:24.406Z,11.60
2023-04-09T16:09:26.803Z,11.70
2023-04-09T16:14:30.178Z,11.50
2023-04-09T16:19:32.558Z,11.10
2023-04-09T16:24:34.989Z,11.30
2023-04-09T16:29:37.400Z,11.20
2023-04-09T16:34:39.888Z,11.00
2023-04-09T16:39:42.330Z,11.00
2023-04-09T16:44:46.676Z,11.00
2023-04-09T16:49:49.071Z,10.70
2023-04-09T16:54:51.688Z,10.60
2023-04-09T16:59:54.175Z,11.00
2023-04-09T17:04:57.345Z,10.70
2023-04-09T17:09:59.825Z,10.80
2023-04-09T17:15:02.319Z,10.80
2023-04-09T17:20:05.808Z,10.70
2023-04-09T17:25:08.752Z,10.70
2023-04-09T17:30:12.297Z,10.60
2023-04-09T17:35:14.698Z,10.60
2023-04-09T17:40:18.759Z,10.40
2023-04-09T17:45:21.090Z,10.30
2023-04-09T17:50:23.468Z,10.10
2023-04-09T17:55:26.197Z,10.00
2023-04-09T18:00:28.556Z,10.00
2023-04-09T18:05:31.147Z,9.90
2023-04-09T18:10:34.244Z,9.80
2023-04-09T18:15:37.399Z,10.00
2023-04-09T18:20:39.785Z,9.70
2023-04-09T18:25:42.158Z,9.60
2023-04-09T18:30:44.584Z,9.60
2023-04-09T18:35:47.174Z,9.50
2023-04-09T18:40:49.590Z,9.40
2023-04-09T18:45:52.658Z,9.30
2023-04-09T18:50:55.052Z,9.20
2023-04-09T18:55:57.500Z,9.20
2023-04-09T19:01:01.470Z,9.20
2023-04-09T19:06:12.335Z,9.50
2023-04-09T19:11:15.053Z,9.10
2023-04-09T19:16:18.397Z,9.00
2023-04-09T19:21:20.902Z,9.00
2023-04-09T19:26:23.264Z,9.00
2023-04-09T19:31:25.874Z,9.00
2023-04-09T19:36:28.510Z,9.40
2023-04-09T19:41:31.019Z,9.00
2023-04-09T19:46:33.599Z,8.90
2023-04-09T19:51:36.137Z,8.90
2023-04-09T19:56:38.550Z,8.80
2023-04-09T20:01:40.989Z,8.80
2023-04-09T20:06:44.615Z,9.10
2023-04-09T20:11:46.926Z,8.80
2023-04-09T20:16:49.463Z,8.80
2023-04-09T20:21:52.825Z,8.70
2023-04-09T20:26:56.099Z,8.70
2023-04-09T20:31:58.639Z,8.70
2023-04-09T20:37:01.692Z,8.70
2023-04-09T20:42:04.093Z,8.80
2023-04-09T20:47:07.258Z,8.60
2023-04-09T20:52:09.901Z,8.60
2023-04-09T20:57:13.903Z,8.80
2023-04-09T21:02:17.064Z,8.60
2023-04-09T21:07:19.791Z,8.70
2023-04-09T21:12:22.099Z,8.50
2023-04-09T21:17:24.538Z,8.40
2023-04-09T21:22:26.912Z,8.30
2023-04-09T21:27:29.592Z,8.30
2023-04-09T21:32:32.643Z,8.10
2023-04-09T21:37:37.604Z,8.00
2023-04-09T21:42:39.918Z,7.80
2023-04-09T21:47:42.407Z,7.60
2023-04-09T21:52:47.956Z,7.80
2023-04-09T21:57:53.614Z,7.30
2023-04-09T22:03:01.298Z,7.20
2023-04-09T22:08:03.800Z,7.10
2023-04-09T22:13:06.387Z,7.10
2023-04-09T22:18:08.701Z,6.90
2023-04-09T22:23:11.026Z,6.80
2023-04-09T22:28:13.415Z,6.80
2023-04-09T22:33:15.784Z,6.80
2023-04-09T22:38:18.130Z,6.80
2023-04-09T22:43:20.565Z,6.80
2023-04-09T22:48:23.392Z,6.80
2023-04-09T22:53:25.856Z,6.80
2023-04-09T22:58:28.155Z,6.70
2023-04-09T23:03:30.821Z,6.70
2023-04-09T23:08:33.629Z,6.80
2023-04-09T23:13:36.127Z,6.50
2023-04-09T23:18:38.624Z,6.50
2023-04-09T23:23:41.007Z,6.40
2023-04-09T23:28:43.351Z,6.30
2023-04-09T23:33:45.682Z,6.30
2023-04-09T23:38:48.021Z,6.30
2023-04-09T23:43:51.492Z,6.30
2023-04-09T23:48:54.011Z,6.20
2023-04-09T23:53:56.297Z,6.10
2023-04-09T23:58:58.627Z,6.00
